createdAt,value
2022-08-30T00:02:02.734Z,4.30
2022-08-30T00:04:29.759Z,4.30
2022-08-30T00:06:56.622Z,4.90
2022-08-30T00:09:23.551Z,4.20
2022-08-30T00:11:52.188Z,4.10
2022-08-30T00:14:20.473Z,3.80
2022-08-30T00:16:47.375Z,3.60
2022-08-30T00:19:14.581Z,3.80
2022-08-30T00:21:41.646Z,4.20
2022-08-30T00:24:09.002Z,3.90
2022-08-30T00:26:35.827Z,4.10
2022-08-30T00:29:03.628Z,4.20
2022-08-30T00:31:30.474Z,4.40
2022-08-30T00:33:57.360Z,4.00
2022-08-30T00:36:24.272Z,4.10
2022-08-30T00:38:51.098Z,3.90
2022-08-30T00:41:17.930Z,4.00
2022-08-30T00:43:44.718Z,3.80
2022-08-30T00:46:11.605Z,3.80
2022-08-30T00:48:43.145Z,3.90
2022-08-30T00:51:12.885Z,3.80
2022-08-30T00:53:44.880Z,4.50
2022-08-30T00:56:12.359Z,3.90
2022-08-30T00:58:44.166Z,3.60
2022-08-30T01:01:11.558Z,3.60
2022-08-30T01:03:39.648Z,4.70
2022-08-30T01:06:07.781Z,4.20
2022-08-30T01:08:35.390Z,4.00
2022-08-30T01:11:04.119Z,3.60
2022-08-30T01:13:32.536Z,4.30
2022-08-30T01:16:00.237Z,4.00
2022-08-30T01:18:28.737Z,4.10
2022-08-30T01:21:07.100Z,4.20
2022-08-30T01:23:38.435Z,4.30
2022-08-30T01:26:06.835Z,4.20
2022-08-30T01:28:34.648Z,3.70
2022-08-30T01:31:01.960Z,4.00
2022-08-30T01:33:29.007Z,4.30
2022-08-30T01:35:59.091Z,4.20
2022-08-30T01:38:34.742Z,4.20
2022-08-30T01:41:12.522Z,4.50
2022-08-30T01:43:40.154Z,4.30
2022-08-30T01:46:07.345Z,4.10
2022-08-30T01:48:34.435Z,4.10
2022-08-30T01:51:02.968Z,4.10
2022-08-30T01:53:30.368Z,4.00
2022-08-30T01:55:57.426Z,3.90
2022-08-30T01:58:24.953Z,4.30
2022-08-30T02:00:52.013Z,4.30
2022-08-30T02:03:20.071Z,4.10
2022-08-30T02:05:48.499Z,4.20
2022-08-30T02:08:15.540Z,4.00
2022-08-30T02:10:42.593Z,3.70
2022-08-30T02:13:09.801Z,4.40
2022-08-30T02:15:41.596Z,4.40
2022-08-30T02:18:10.885Z,4.20
2022-08-30T02:20:39.950Z,4.70
2022-08-30T02:23:06.816Z,4.00
2022-08-30T02:25:33.828Z,4.20
2022-08-30T02:28:00.683Z,3.90
2022-08-30T02:30:28.360Z,4.20
2022-08-30T02:32:55.234Z,4.00
2022-08-30T02:35:22.729Z,4.10
2022-08-30T02:37:49.757Z,4.20
2022-08-30T02:40:18.405Z,4.40
2022-08-30T02:42:45.268Z,5.00
2022-08-30T02:45:12.232Z,4.60
2022-08-30T02:47:41.634Z,4.30
2022-08-30T02:50:11.979Z,4.50
2022-08-30T02:52:38.908Z,4.40
2022-08-30T02:55:07.007Z,5.10
2022-08-30T02:57:33.959Z,4.90
2022-08-30T03:00:01.455Z,4.90
2022-08-30T03:02:29.194Z,4.50
2022-08-30T03:04:57.631Z,4.50
2022-08-30T03:07:24.539Z,4.70
2022-08-30T03:09:51.367Z,4.30
2022-08-30T03:12:18.787Z,4.30
2022-08-30T03:14:45.601Z,4.40
2022-08-30T03:17:15.330Z,4.50
2022-08-30T03:19:44.372Z,4.50
2022-08-30T03:22:11.354Z,4.10
2022-08-30T03:24:39.051Z,4.40
2022-08-30T03:27:06.086Z,4.50
2022-08-30T03:29:33.238Z,4.40
2022-08-30T03:32:00.491Z,4.50
2022-08-30T03:34:28.200Z,4.70
2022-08-30T03:36:56.770Z,4.50
2022-08-30T03:39:25.275Z,4.40
2022-08-30T03:41:52.130Z,4.00
2022-08-30T03:44:19.569Z,4.50
2022-08-30T03:46:47.604Z,4.70
2022-08-30T03:49:14.728Z,4.90
2022-08-30T03:51:41.707Z,5.60
2022-08-30T03:54:09.358Z,5.50
2022-08-30T03:56:37.174Z,5.80
2022-08-30T03:59:04.218Z,5.70
2022-08-30T04:01:31.126Z,5.40
2022-08-30T04:03:57.998Z,5.20
2022-08-30T04:06:24.915Z,5.10
2022-08-30T04:08:51.894Z,5.30
2022-08-30T04:11:18.916Z,5.30
2022-08-30T04:13:46.503Z,5.50
2022-08-30T04:16:13.506Z,5.40
2022-08-30T04:18:40.534Z,4.50
2022-08-30T04:21:09.514Z,5.00
2022-08-30T04:23:39.278Z,4.80
2022-08-30T04:26:06.222Z,5.20
2022-08-30T04:28:35.229Z,5.20
2022-08-30T04:31:11.666Z,4.40
2022-08-30T04:33:39.525Z,4.90
2022-08-30T04:36:08.435Z,5.40
2022-08-30T04:38:37.033Z,5.60
2022-08-30T04:41:09.172Z,6.70
2022-08-30T04:43:35.974Z,7.40
2022-08-30T04:46:06.768Z,7.70
2022-08-30T04:48:34.544Z,7.90
2022-08-30T04:51:05.998Z,7.80
2022-08-30T04:53:33.482Z,7.70
2022-08-30T04:56:00.482Z,7.40
2022-08-30T04:58:27.595Z,7.60
2022-08-30T05:00:55.774Z,6.70
2022-08-30T05:03:22.628Z,6.20
2022-08-30T05:05:50.704Z,6.70
2022-08-30T05:08:23.322Z,7.50
2022-08-30T05:10:52.611Z,7.40
2022-08-30T05:13:25.957Z,7.80
2022-08-30T05:16:04.925Z,8.70
2022-08-30T05:18:32.398Z,7.90
2022-08-30T05:21:16.956Z,8.40
2022-08-30T05:23:44.521Z,8.50
2022-08-30T05:26:14.901Z,8.90
2022-08-30T05:28:42.484Z,8.10
2022-08-30T05:31:17.320Z,8.50
2022-08-30T05:33:44.729Z,9.00
2022-08-30T05:36:13.510Z,9.80
2022-08-30T05:38:40.875Z,9.30
2022-08-30T05:41:10.887Z,9.40
2022-08-30T05:43:38.911Z,8.40
2022-08-30T05:46:09.334Z,8.80
2022-08-30T05:48:37.083Z,8.50
2022-08-30T05:51:06.782Z,8.00
2022-08-30T05:53:34.579Z,8.50
2022-08-30T05:56:04.869Z,9.20
2022-08-30T05:58:32.928Z,9.20
2022-08-30T06:01:00.559Z,9.20
2022-08-30T06:03:28.295Z,9.10
2022-08-30T06:05:55.670Z,9.60
2022-08-30T06:08:22.518Z,9.60
2022-08-30T06:10:49.692Z,9.10
2022-08-30T06:13:16.545Z,9.40
2022-08-30T06:15:45.212Z,10.20
2022-08-30T06:18:12.913Z,10.90
2022-08-30T06:20:50.856Z,11.40
2022-08-30T06:23:18.168Z,9.90
2022-08-30T06:25:45.097Z,10.10
2022-08-30T06:28:13.228Z,9.80
2022-08-30T06:30:42.901Z,9.70
2022-08-30T06:33:10.729Z,10.90
2022-08-30T06:35:42.315Z,10.40
2022-08-30T06:38:23.827Z,12.20
2022-08-30T06:40:51.176Z,11.50
2022-08-30T06:43:18.077Z,12.40
2022-08-30T06:45:44.960Z,11.00
2022-08-30T06:48:12.516Z,10.10
2022-08-30T06:50:42.019Z,9.70
2022-08-30T06:53:09.944Z,9.50
2022-08-30T06:55:37.821Z,9.00
2022-08-30T06:58:05.005Z,10.70
2022-08-30T07:00:31.886Z,9.70
2022-08-30T07:02:59.210Z,7.10
2022-08-30T07:05:26.065Z,7.10
2022-08-30T07:07:54.423Z,8.30
2022-08-30T07:10:21.869Z,6.90
2022-08-30T07:12:49.286Z,7.00
2022-08-30T07:15:16.683Z,6.20
2022-08-30T07:17:59.402Z,6.50
2022-08-30T07:20:27.130Z,7.20
2022-08-30T07:22:53.945Z,7.90
2022-08-30T07:25:20.916Z,7.90
2022-08-30T07:27:47.768Z,8.50
2022-08-30T07:30:14.682Z,8.10
2022-08-30T07:32:41.579Z,9.20
2022-08-30T07:35:08.847Z,8.70
2022-08-30T07:37:35.832Z,8.80
2022-08-30T07:40:04.641Z,8.20
2022-08-30T07:42:31.605Z,8.10
2022-08-30T07:44:58.426Z,7.40
2022-08-30T07:47:25.262Z,8.60
2022-08-30T07:49:52.077Z,7.60
2022-08-30T07:52:18.896Z,7.10
2022-08-30T07:54:45.758Z,9.00
2022-08-30T07:57:12.627Z,9.00
2022-08-30T07:59:43.367Z,8.00
2022-08-30T08:02:10.382Z,8.50
2022-08-30T08:04:37.231Z,9.50
2022-08-30T08:07:04.289Z,8.20
2022-08-30T08:09:31.155Z,8.10
2022-08-30T08:11:58.116Z,7.70
2022-08-30T08:14:24.990Z,6.10
2022-08-30T08:16:52.344Z,6.10
2022-08-30T08:19:19.796Z,7.20
2022-08-30T08:21:46.865Z,6.50
2022-08-30T08:24:14.177Z,6.00
2022-08-30T08:26:45.293Z,6.40
2022-08-30T08:29:12.399Z,5.80
2022-08-30T08:31:41.656Z,5.50
2022-08-30T08:34:08.819Z,5.30
2022-08-30T08:36:36.331Z,5.60
2022-08-30T08:39:06.084Z,5.10
2022-08-30T08:41:50.527Z,5.60
2022-08-30T08:44:37.373Z,3.80
2022-08-30T08:47:11.625Z,3.90
2022-08-30T08:49:44.976Z,3.90
2022-08-30T08:52:35.484Z,3.80
2022-08-30T08:55:10.127Z,3.50
2022-08-30T08:57:37.704Z,3.50
2022-08-30T09:00:08.448Z,4.40
2022-08-30T09:02:43.545Z,4.90
2022-08-30T09:05:15.194Z,4.10
2022-08-30T09:07:47.843Z,5.10
2022-08-30T09:10:18.271Z,4.20
2022-08-30T09:12:47.289Z,4.80
2022-08-30T09:15:18.221Z,5.20
2022-08-30T09:18:02.156Z,4.80
2022-08-30T09:20:35.806Z,4.50
2022-08-30T09:23:18.620Z,4.50
2022-08-30T09:25:56.685Z,4.30
2022-08-30T09:28:27.608Z,4.60
2022-08-30T09:31:25.743Z,4.00
2022-08-30T09:33:55.389Z,3.90
2022-08-30T09:36:29.632Z,3.80
2022-08-30T09:39:01.817Z,3.70
2022-08-30T09:41:42.678Z,3.80
2022-08-30T09:44:15.687Z,3.90
2022-08-30T09:49:30.489Z,3.00
2022-08-30T09:52:28.765Z,3.50
2022-08-30T09:55:28.110Z,3.40
2022-08-30T09:58:08.340Z,3.30
2022-08-30T10:00:46.652Z,3.50
2022-08-30T10:03:40.727Z,3.40
2022-08-30T10:06:29.131Z,3.50
2022-08-30T10:09:19.190Z,3.20
2022-08-30T10:12:08.450Z,2.90
2022-08-30T10:14:46.943Z,2.50
2022-08-30T10:17:41.977Z,3.00
2022-08-30T10:20:15.247Z,2.80
2022-08-30T10:22:50.297Z,2.70
2022-08-30T10:25:25.596Z,2.80
2022-08-30T10:28:00.445Z,2.50
2022-08-30T10:30:28.694Z,2.30
2022-08-30T10:33:03.941Z,2.70
2022-08-30T10:35:39.221Z,2.60
2022-08-30T10:38:15.308Z,3.20
2022-08-30T10:41:03.610Z,3.00
2022-08-30T10:43:40.589Z,3.00
2022-08-30T10:46:18.846Z,2.50
2022-08-30T10:48:48.632Z,3.10
2022-08-30T10:51:24.893Z,2.30
2022-08-30T10:54:01.008Z,2.60
2022-08-30T10:56:29.725Z,2.20
2022-08-30T10:58:59.201Z,2.30
2022-08-30T11:01:51.808Z,2.00
2022-08-30T11:04:45.943Z,2.10
2022-08-30T11:07:31.830Z,2.00
2022-08-30T11:10:07.465Z,2.00
2022-08-30T11:12:38.318Z,2.10
2022-08-30T11:15:15.181Z,2.20
2022-08-30T11:17:56.074Z,1.80
2022-08-30T11:20:34.571Z,1.80
2022-08-30T11:23:19.890Z,1.60
2022-08-30T11:25:57.410Z,1.80
2022-08-30T11:28:41.128Z,1.70
2022-08-30T11:31:29.203Z,1.80
2022-08-30T11:34:00.617Z,1.50
2022-08-30T11:36:37.908Z,1.50
2022-08-30T11:39:31.779Z,1.20
2022-08-30T11:42:30.123Z,1.40
2022-08-30T11:45:28.812Z,1.40
2022-08-30T11:47:59.793Z,1.00
2022-08-30T11:50:47.789Z,1.00
2022-08-30T11:53:15.919Z,0.90
2022-08-30T11:55:46.700Z,0.90
2022-08-30T11:58:36.667Z,0.80
2022-08-30T12:01:42.206Z,0.90
2022-08-30T12:04:25.757Z,0.90
2022-08-30T12:06:59.275Z,0.90
2022-08-30T12:09:27.135Z,1.00
2022-08-30T12:11:58.428Z,1.10
2022-08-30T12:14:57.783Z,0.90
2022-08-30T12:17:46.077Z,1.10
2022-08-30T12:20:31.085Z,1.10
2022-08-30T12:23:20.876Z,1.30
2022-08-30T12:25:48.213Z,1.30
2022-08-30T12:28:26.434Z,1.30
2022-08-30T12:30:53.594Z,1.10
2022-08-30T12:33:39.539Z,1.00
2022-08-30T12:36:13.710Z,1.00
2022-08-30T12:38:40.789Z,1.40
2022-08-30T12:41:07.884Z,1.30
2022-08-30T12:43:40.641Z,1.10
2022-08-30T12:46:15.100Z,1.10
2022-08-30T12:48:43.734Z,1.40
2022-08-30T12:51:28.465Z,1.30
2022-08-30T12:54:05.483Z,1.50
2022-08-30T12:57:19.044Z,1.30
2022-08-30T12:59:59.528Z,1.50
2022-08-30T13:02:47.428Z,1.60
2022-08-30T13:05:32.250Z,1.60
2022-08-30T13:08:15.642Z,1.60
2022-08-30T13:11:08.421Z,1.60
2022-08-30T13:16:20.608Z,1.50
2022-08-30T13:18:50.424Z,1.20
2022-08-30T13:21:33.846Z,1.30
2022-08-30T13:24:05.118Z,1.40
2022-08-30T13:26:36.386Z,1.50
2022-08-30T13:29:10.457Z,1.30
2022-08-30T13:31:37.701Z,1.20
2022-08-30T13:34:05.234Z,1.20
2022-08-30T13:36:37.383Z,1.40
2022-08-30T13:39:05.680Z,1.20
2022-08-30T13:41:34.413Z,0.80
2022-08-30T13:44:13.387Z,0.90
2022-08-30T13:46:45.722Z,0.80
2022-08-30T13:52:26.838Z,1.10
2022-08-30T13:54:56.456Z,1.00
2022-08-30T14:00:19.581Z,1.00
2022-08-30T14:02:54.836Z,1.20
2022-08-30T14:11:01.531Z,0.70
2022-08-30T14:13:29.888Z,0.90
2022-08-30T14:18:46.678Z,0.80
2022-08-30T14:21:13.587Z,1.10
2022-08-30T14:23:40.483Z,1.20
2022-08-30T14:26:15.236Z,1.20
2022-08-30T14:28:44.970Z,1.10
2022-08-30T14:31:12.209Z,1.10
2022-08-30T14:33:40.379Z,1.60
2022-08-30T14:36:12.385Z,1.30
2022-08-30T14:38:42.703Z,1.20
2022-08-30T14:41:11.070Z,1.30
2022-08-30T14:43:40.746Z,1.50
2022-08-30T14:46:09.166Z,1.30
2022-08-30T14:48:38.404Z,1.30
2022-08-30T14:51:15.415Z,1.30
2022-08-30T14:53:42.929Z,1.40
2022-08-30T14:56:14.345Z,1.30
2022-08-30T14:58:41.311Z,1.50
2022-08-30T15:01:09.282Z,1.80
2022-08-30T15:03:38.432Z,1.60
2022-08-30T15:06:06.671Z,2.50
2022-08-30T15:08:35.589Z,2.60
2022-08-30T15:11:08.797Z,1.90
2022-08-30T15:13:35.982Z,2.20
2022-08-30T15:16:03.690Z,1.90
2022-08-30T15:18:30.757Z,2.00
2022-08-30T15:20:57.525Z,2.80
2022-08-30T15:23:24.799Z,3.30
2022-08-30T15:25:52.128Z,3.70
2022-08-30T15:28:19.474Z,2.90
2022-08-30T15:30:46.726Z,2.80
2022-08-30T15:33:13.702Z,3.00
2022-08-30T15:35:41.714Z,2.90
2022-08-30T15:38:08.868Z,3.60
2022-08-30T15:40:39.587Z,3.10
2022-08-30T15:43:07.156Z,3.10
2022-08-30T15:45:34.079Z,3.10
2022-08-30T15:48:01.585Z,3.40
2022-08-30T15:50:44.723Z,3.60
2022-08-30T15:53:11.815Z,3.40
2022-08-30T15:55:39.067Z,3.30
2022-08-30T15:58:05.873Z,3.10
2022-08-30T16:00:32.926Z,3.20
2022-08-30T16:03:00.418Z,3.50
2022-08-30T16:05:29.366Z,3.30
2022-08-30T16:07:56.173Z,3.20
2022-08-30T16:10:22.948Z,3.20
2022-08-30T16:12:49.874Z,3.10
2022-08-30T16:15:16.755Z,3.10
2022-08-30T16:17:44.755Z,3.20
2022-08-30T16:20:11.975Z,2.90
2022-08-30T16:22:38.845Z,3.30
2022-08-30T16:25:11.218Z,3.10
2022-08-30T16:27:42.896Z,3.60
2022-08-30T16:30:12.339Z,3.50
2022-08-30T16:32:39.780Z,3.30
2022-08-30T16:35:07.876Z,3.30
2022-08-30T16:37:34.835Z,3.50
2022-08-30T16:40:01.841Z,21.60
2022-08-30T16:42:28.753Z,7.20
2022-08-30T16:44:55.689Z,6.50
2022-08-30T16:47:22.561Z,5.50
2022-08-30T16:49:49.815Z,3.90
2022-08-30T16:52:17.339Z,3.70
2022-08-30T16:54:45.364Z,3.20
2022-08-30T16:57:12.402Z,3.20
2022-08-30T16:59:39.523Z,3.10
2022-08-30T17:02:06.790Z,3.40
2022-08-30T17:04:33.811Z,3.30
2022-08-30T17:07:00.933Z,3.60
2022-08-30T17:09:27.712Z,3.10
2022-08-30T17:11:54.566Z,3.40
2022-08-30T17:17:08.262Z,3.10
2022-08-30T17:19:41.236Z,3.20
2022-08-30T17:22:09.849Z,3.20
2022-08-30T17:24:38.535Z,3.50
2022-08-30T17:27:06.210Z,3.70
2022-08-30T17:29:33.624Z,3.50
2022-08-30T17:32:00.767Z,3.70
2022-08-30T17:34:28.188Z,3.80
2022-08-30T17:36:57.342Z,4.70
2022-08-30T17:39:24.784Z,10.60
2022-08-30T17:41:51.822Z,8.20
2022-08-30T17:44:21.867Z,5.90
2022-08-30T17:46:52.707Z,6.40
2022-08-30T17:49:19.782Z,9.60
2022-08-30T17:51:52.827Z,5.50
2022-08-30T17:54:24.522Z,11.30
2022-08-30T17:56:53.492Z,8.10
2022-08-30T17:59:25.118Z,5.20
2022-08-30T18:01:54.599Z,4.70
2022-08-30T18:04:24.952Z,4.30
2022-08-30T18:06:52.439Z,3.70
2022-08-30T18:09:19.493Z,3.70
2022-08-30T18:11:47.334Z,3.70
2022-08-30T18:14:16.729Z,3.60
2022-08-30T18:16:50.168Z,4.10
2022-08-30T18:19:24.393Z,4.30
2022-08-30T18:21:52.479Z,4.10
2022-08-30T18:24:19.632Z,3.80
2022-08-30T18:26:46.774Z,3.60
2022-08-30T18:29:14.217Z,3.60
2022-08-30T18:31:41.367Z,3.50
2022-08-30T18:34:12.480Z,4.20
2022-08-30T18:36:40.681Z,4.00
2022-08-30T18:39:08.542Z,4.10
2022-08-30T18:41:43.067Z,4.20
2022-08-30T18:44:26.762Z,4.40
2022-08-30T18:46:56.319Z,3.60
2022-08-30T18:49:26.274Z,3.50
2022-08-30T18:51:53.955Z,3.70
2022-08-30T18:54:20.906Z,3.80
2022-08-30T18:56:48.111Z,4.30
2022-08-30T18:59:16.238Z,4.10
2022-08-30T19:01:44.305Z,3.70
2022-08-30T19:04:22.148Z,3.80
2022-08-30T19:06:57.312Z,3.80
2022-08-30T19:09:24.359Z,3.80
2022-08-30T19:11:53.848Z,3.50
2022-08-30T19:14:20.677Z,3.60
2022-08-30T19:16:48.159Z,3.70
2022-08-30T19:19:15.664Z,3.50
2022-08-30T19:21:42.523Z,4.00
2022-08-30T19:24:09.543Z,4.10
2022-08-30T19:26:38.655Z,3.90
2022-08-30T19:29:06.938Z,3.70
2022-08-30T19:31:34.483Z,3.80
2022-08-30T19:34:01.282Z,3.70
2022-08-30T19:36:29.033Z,3.90
2022-08-30T19:38:56.128Z,4.10
2022-08-30T19:41:24.329Z,4.00
2022-08-30T19:43:51.716Z,3.80
2022-08-30T19:46:18.683Z,3.80
2022-08-30T19:48:45.597Z,3.70
2022-08-30T19:51:15.224Z,3.50
2022-08-30T19:53:43.920Z,3.90
2022-08-30T19:56:12.020Z,3.80
2022-08-30T19:58:38.950Z,4.40
2022-08-30T20:01:12.223Z,4.20
2022-08-30T20:03:47.567Z,4.10
2022-08-30T20:06:19.782Z,4.40
2022-08-30T20:08:47.295Z,3.70
2022-08-30T20:11:16.204Z,3.70
2022-08-30T20:13:43.755Z,3.90
2022-08-30T20:16:12.804Z,4.50
2022-08-30T20:18:42.696Z,4.00
2022-08-30T20:21:13.533Z,4.80
2022-08-30T20:23:42.193Z,4.50
2022-08-30T20:24:23.993Z,3.20
2022-08-30T20:26:11.877Z,4.10
2022-08-30T20:28:39.857Z,3.90
2022-08-30T20:31:08.147Z,4.40
2022-08-30T20:33:37.756Z,4.10
2022-08-30T20:36:06.631Z,4.60
2022-08-30T20:38:33.985Z,4.80
2022-08-30T20:41:02.752Z,4.40
2022-08-30T20:43:31.617Z,3.80
2022-08-30T20:45:58.990Z,4.60
2022-08-30T20:48:28.808Z,4.20
2022-08-30T20:50:55.801Z,4.40
2022-08-30T20:53:23.698Z,4.30
2022-08-30T20:55:50.923Z,4.70
2022-08-30T20:58:17.989Z,5.10
2022-08-30T21:00:50.064Z,4.30
2022-08-30T21:03:27.611Z,4.80
2022-08-30T21:05:56.360Z,4.90
2022-08-30T21:08:23.314Z,4.10
2022-08-30T21:10:50.261Z,4.70
2022-08-30T21:13:17.533Z,4.40
2022-08-30T21:15:46.322Z,5.00
2022-08-30T21:18:14.721Z,4.60
2022-08-30T21:20:42.444Z,4.40
2022-08-30T21:23:09.737Z,4.30
2022-08-30T21:25:40.009Z,4.00
2022-08-30T21:28:07.409Z,4.30
2022-08-30T21:30:35.952Z,5.10
2022-08-30T21:33:04.553Z,4.20
2022-08-30T21:35:47.285Z,4.90
2022-08-30T21:38:15.515Z,4.60
2022-08-30T21:40:42.790Z,4.60
2022-08-30T21:43:10.865Z,4.50
2022-08-30T21:45:39.507Z,4.10
2022-08-30T21:48:07.335Z,4.70
2022-08-30T21:50:35.182Z,4.60
2022-08-30T21:53:02.391Z,4.40
2022-08-30T21:55:29.221Z,4.40
2022-08-30T21:57:56.113Z,4.20
2022-08-30T22:00:23.145Z,4.20
2022-08-30T22:02:53.367Z,4.20
2022-08-30T22:05:20.765Z,4.60
2022-08-30T22:07:47.671Z,4.60
2022-08-30T22:10:15.052Z,4.80
2022-08-30T22:12:42.059Z,4.50
2022-08-30T22:15:09.840Z,5.00
2022-08-30T22:17:36.748Z,4.50
2022-08-30T22:20:06.185Z,4.60
2022-08-30T22:22:33.320Z,5.00
2022-08-30T22:25:00.800Z,5.00
2022-08-30T22:27:27.790Z,5.50
2022-08-30T22:29:54.734Z,5.70
2022-08-30T22:32:21.914Z,5.30
2022-08-30T22:34:50.032Z,5.10
2022-08-30T22:37:17.103Z,5.50
2022-08-30T22:39:44.027Z,5.80
2022-08-30T22:42:10.919Z,5.40
2022-08-30T22:44:37.810Z,5.90
2022-08-30T22:47:04.860Z,5.90
2022-08-30T22:49:32.079Z,5.60
2022-08-30T22:51:58.996Z,5.60
2022-08-30T22:54:25.968Z,5.70
2022-08-30T22:56:53.033Z,6.00
2022-08-30T22:59:20.379Z,6.00
2022-08-30T23:01:51.489Z,5.90
2022-08-30T23:04:18.488Z,6.10
2022-08-30T23:06:50.117Z,5.90
2022-08-30T23:09:17.533Z,5.40
2022-08-30T23:11:44.420Z,5.20
2022-08-30T23:14:11.265Z,6.10
2022-08-30T23:16:38.271Z,5.30
2022-08-30T23:19:05.738Z,5.30
2022-08-30T23:21:33.071Z,5.20
2022-08-30T23:24:15.800Z,5.70
2022-08-30T23:27:00.082Z,5.90
2022-08-30T23:32:25.246Z,5.40
2022-08-30T23:35:07.477Z,6.10
2022-08-30T23:37:53.035Z,6.50
2022-08-30T23:40:37.289Z,6.90
2022-08-30T23:43:20.042Z,7.60
2022-08-30T23:46:02.902Z,7.10
2022-08-30T23:48:50.613Z,5.30
2022-08-30T23:51:35.168Z,5.90
2022-08-30T23:54:19.549Z,5.30
2022-08-30T23:59:44.648Z,4.90
